Latest Weather Observations for High Range (Wanganderry)

IDN60801

Issued at 8:02 am EST Tuesday 31 May 2016 (issued every 30 minutes, with the page automatically refreshed every 10 minutes)

About weather observations | Map of weather stations | Latest weather observations for NSW | Other Formats
Station Details ID: 068262 Name: HIGH RANGE AWS (WANGANDERRY) Lat: -34.33 Lon: 150.27 Height: 813.6 m
Data from the previous 72 hours. | See also: Recent months for locations in New South Wales
Date/Time
EST
Temp
°C
App
Temp
°C
Dew
Point
Rel
Hum
%
Delta-T
°C
Wind Press
QNH
hPa
Press
MSL
hPa
Rain
since 9 am
mm
Dir
 
Spd
km/h
Gust
km/h
Spd
kts
Gust
kts
31/08:00am 6.8 2.8 6.8 100 0.0 S 17 20 9 11 1029.2 1028.9 0.0
31/07:30am 6.6 2.6 6.6 100 0.0 S 17 20 9 11 1028.7 1028.4 0.0
31/07:00am 6.4 2.3 6.4 100 0.0 SSW 17 20 9 11 1028.7 1028.4 0.0
31/06:30am 6.3 2.2 6.2 99 0.0 SSW 17 20 9 11 1028.3 1028.0 0.0
31/06:00am 6.3 2.2 6.2 99 0.0 S 17 17 9 9 1027.9 1027.5 0.0
31/05:30am 6.4 2.7 6.3 99 0.0 S 15 20 8 11 1027.8 1027.4 0.0
31/05:00am 6.2 2.1 6.1 99 0.0 SSW 17 20 9 11 1027.6 1027.2 0.0
31/04:30am 6.2 2.1 6.1 99 0.0 S 17 20 9 11 1027.6 1027.2 0.0
31/04:00am 6.2 1.7 6.1 99 0.0 SSW 19 24 10 13 1027.4 1027.1 0.0
31/03:30am 6.1 2.0 6.0 99 0.0 S 17 19 9 10 1027.3 1027.0 0.0
31/03:00am 6.0 1.5 5.9 99 0.0 SSW 19 24 10 13 1027.3 1027.0 0.0
31/02:30am 6.0 1.5 5.9 99 0.0 SSW 19 24 10 13 1027.3 1027.0 0.0
31/02:00am 6.0 1.8 5.7 98 0.1 SSW 17 20 9 11 1027.3 1027.0 0.0
31/01:30am 6.0 1.4 5.7 98 0.1 SSW 19 24 10 13 1027.4 1027.1 0.0
31/01:00am 5.3 0.9 4.9 97 0.2 SSW 17 20 9 11 1027.4 1027.1 0.0
31/12:30am 5.4 1.0 4.8 96 0.3 SSW 17 20 9 11 1027.6 1027.2 0.0
31/12:00am 5.9 1.6 5.2 95 0.3 S 17 20 9 11 1027.7 1027.3 0.0
 
Date/Time
EST
Temp
°C
App
Temp
°C
Dew
Point
Rel
Hum
%
Delta-T
°C
Wind Press
QNH
hPa
Press
MSL
hPa
Rain
since 9 am
mm
Dir
 
Spd
km/h
Gust
km/h
Spd
kts
Gust
kts
30/11:30pm 5.5 1.4 4.5 93 0.5 S 15 20 8 11 1027.7 1027.3 0.0
30/11:00pm 5.1 0.9 3.9 92 0.5 SSW 15 17 8 9 1027.8 1027.4 0.0
30/10:30pm 5.7 1.2 4.2 90 0.7 S 17 20 9 11 1027.7 1027.3 0.0
30/10:00pm 5.8 1.7 4.3 90 0.7 S 15 19 8 10 1027.6 1027.2 0.0
30/09:30pm 5.7 1.5 3.7 87 0.9 S 15 20 8 11 1027.4 1027.1 0.0
30/09:00pm 5.7 1.4 3.4 85 1.0 S 15 19 8 10 1027.4 1027.1 0.0
30/08:30pm 5.8 1.5 3.0 82 1.2 S 15 19 8 10 1027.1 1026.8 0.0
30/08:00pm 6.1 2.1 2.6 78 1.5 S 13 17 7 9 1027.1 1026.8 0.0
30/07:30pm 6.4 2.8 2.7 77 1.6 S 11 15 6 8 1026.9 1026.5 0.0
30/07:00pm 6.4 2.0 2.7 77 1.6 SSE 15 20 8 11 1026.7 1026.3 0.0
30/06:30pm 6.8 2.5 3.1 77 1.6 SSE 15 19 8 10 1026.6 1026.2 0.0
30/06:00pm 6.6 2.7 3.2 79 1.5 S 13 17 7 9 1026.1 1025.8 0.0
30/05:30pm 6.8 3.2 2.7 75 1.8 S 11 15 6 8 1025.8 1025.4 0.0
30/05:00pm 8.1 4.4 2.4 67 2.5 SSE 11 15 6 8 1025.3 1024.9 0.0
30/04:30pm 9.2 5.7 1.4 58 3.4 SSE 9 11 5 6 1025.0 1024.6 0.0
30/04:00pm 10.9 8.2 0.3 48 4.5 ENE 4 7 2 4 1024.6 1024.2 0.0
30/03:30pm 11.7 9.3 -0.1 44 5.1 NNE 2 6 1 3 1024.5 1024.1 0.0
30/03:00pm 11.7 8.5 -0.4 43 5.1 NE 6 11 3 6 1024.3 1023.9 0.0
30/02:30pm 11.4 8.1 0.2 46 4.8 SSE 7 13 4 7 1024.1 1023.7 0.0
30/02:00pm 11.4 8.3 1.1 49 4.5 S 7 15 4 8 1024.0 1023.6 0.0
30/01:30pm 10.8 7.1 0.0 47 4.6 SE 9 15 5 8 1024.1 1023.7 0.0
30/01:00pm 10.5 6.8 0.0 48 4.4 S 9 15 5 8 1024.2 1023.8 0.0
30/12:30pm 10.3 7.4 1.4 54 3.9 ESE 6 9 3 5 1024.4 1024.0 0.0
30/12:00pm 9.8 6.3 1.2 55 3.7 SSW 9 17 5 9 1024.6 1024.2 0.0
30/11:30am 9.3 6.2 1.2 57 3.5 S 7 11 4 6 1025.1 1024.7 0.0
30/11:00am 8.8 5.4 1.9 62 3.0 S 9 13 5 7 1025.3 1024.9 0.0
30/10:30am 8.1 4.7 1.7 64 2.8 S 9 15 5 8 1025.6 1025.2 0.0
30/10:00am 6.5 2.5 0.8 67 2.4 SSW 11 15 6 8 1025.6 1025.2 0.0
30/09:30am 5.2 1.2 0.8 73 1.8 SW 11 17 6 9 1025.3 1024.9 0.0
30/09:00am 4.4 -0.3 0.9 78 1.4 SW 15 15 8 8 1025.0 1024.6 0.0
30/08:30am 3.3 -1.5 0.4 81 1.2 WSW 15 19 8 10 1024.6 1024.2 0.0
30/08:00am 2.4 -3.8 0.0 84 0.9 WSW 22 26 12 14 1024.3 1023.9 0.0
30/07:30am 1.2 -5.0 -0.4 89 0.6 WSW 22 28 12 15 1023.8 1023.4 0.0
30/07:00am 0.9 -5.3 -0.5 90 0.5 WSW 22 26 12 14 1023.4 1023.0 0.0
30/06:30am 1.2 -4.6 -0.4 89 0.6 WSW 20 24 11 13 1023.2 1022.8 0.0
30/06:00am 1.2 -5.0 -0.6 88 0.7 WSW 22 26 12 14 1022.7 1022.3 0.0
30/05:30am 1.2 -6.2 -0.6 88 0.7 W 28 32 15 17 1022.3 1021.8 0.0
30/05:00am 1.1 -6.3 -0.7 88 0.7 W 28 32 15 17 1022.0 1021.6 0.0
30/04:30am 1.1 -6.3 -0.5 89 0.6 WSW 28 33 15 18 1021.7 1021.3 0.0
30/04:00am 0.8 -5.8 -0.6 90 0.5 WSW 24 28 13 15 1021.6 1021.1 0.0
30/03:30am 0.9 -6.1 -0.7 89 0.6 WSW 26 32 14 17 1021.4 1020.9 0.0
30/03:00am 1.4 -6.0 -0.5 87 0.7 WSW 28 33 15 18 1021.2 1020.7 0.0
30/02:30am 1.5 -6.6 -0.6 86 0.8 WSW 32 39 17 21 1021.2 1020.7 0.0
30/02:00am 1.6 -5.8 -0.8 84 0.9 WSW 28 33 15 18 1021.3 1020.8 0.0
30/01:30am 1.8 -5.2 -0.6 84 0.9 W 26 33 14 18 1021.2 1020.7 0.0
30/01:00am 2.3 -5.1 -0.4 82 1.0 W 28 33 15 18 1021.1 1020.6 0.0
30/12:30am 2.2 -4.8 -0.4 83 1.0 W 26 33 14 18 1021.1 1020.6 0.0
30/12:00am 2.4 -4.6 -0.4 82 1.1 W 26 32 14 17 1021.2 1020.7 0.0
 
Date/Time
EST
Temp
°C
App
Temp
°C
Dew
Point
Rel
Hum
%
Delta-T
°C
Wind Press
QNH
hPa
Press
MSL
hPa
Rain
since 9 am
mm
Dir
 
Spd
km/h
Gust
km/h
Spd
kts
Gust
kts
29/11:30pm 2.6 -4.0 -0.3 81 1.1 WSW 24 28 13 15 1021.1 1020.6 0.0
29/11:00pm 2.8 -4.9 -0.3 80 1.2 WSW 30 37 16 20 1021.0 1020.5 0.0
29/10:30pm 3.0 -5.1 -0.3 79 1.3 W 32 37 17 20 1020.7 1020.3 0.0
29/10:00pm 3.3 -4.0 -0.2 78 1.4 WSW 28 35 15 19 1020.8 1020.4 0.0
29/09:30pm 3.3 -4.4 0.0 79 1.3 W 30 33 16 18 1020.6 1020.2 0.0
29/09:00pm 3.4 -2.7 0.1 79 1.3 WSW 22 26 12 14 1020.6 1020.2 0.0
29/08:30pm 3.7 -3.2 0.2 78 1.4 W 26 32 14 17 1020.3 1019.8 0.0
29/08:00pm 4.1 -2.0 0.4 77 1.5 W 22 30 12 16 1020.2 1019.7 0.0
29/07:30pm 4.7 -1.4 0.3 73 1.8 W 22 28 12 15 1019.9 1019.4 0.0
29/07:00pm 4.8 -1.7 0.4 73 1.8 W 24 32 13 17 1019.2 1018.7 0.0
29/06:30pm 5.2 -1.3 0.6 72 1.9 W 24 32 13 17 1018.9 1018.4 0.0
29/06:00pm 6.0 -1.9 0.8 69 2.1 W 32 39 17 21 1018.7 1018.2 0.0
29/05:30pm 6.2 -0.6 0.5 67 2.3 W 26 35 14 19 1018.5 1018.0 0.0
29/05:00pm 6.4 0.0 0.7 67 2.4 W 24 32 13 17 1018.1 1017.6 0.0
29/04:30pm 7.6 0.8 0.6 61 2.9 W 26 37 14 20 1017.7 1017.2 0.0
29/04:00pm 8.3 0.7 0.3 57 3.3 W 30 43 16 23 1017.3 1016.7 0.0
29/03:30pm 8.8 0.1 -0.5 52 3.8 W 35 41 19 22 1017.2 1016.6 0.0
29/03:00pm 9.1 0.8 -0.2 52 3.9 WSW 33 41 18 22 1016.9 1016.4 0.0
29/02:30pm 9.7 2.0 0.1 51 4.1 W 30 39 16 21 1016.7 1016.2 0.0
29/02:00pm 10.1 2.9 0.7 52 4.0 W 28 37 15 20 1016.7 1016.2 0.0
29/01:30pm 9.4 1.4 0.1 52 3.9 WSW 32 43 17 23 1016.3 1015.8 0.0
29/01:00pm 9.5 0.9 -0.1 51 4.0 W 35 44 19 24 1016.4 1015.9 0.0
29/12:30pm 9.5 1.7 1.7 58 3.4 WSW 32 39 17 21 1016.5 1016.0 0.0
29/12:00pm 9.1 3.2 1.8 60 3.2 WSW 22 33 12 18 1016.6 1016.1 0.0
29/11:30am 8.6 2.3 1.7 62 3.0 WSW 24 35 13 19 1016.8 1016.3 0.0
29/11:00am 8.4 1.8 1.8 63 2.9 WSW 26 39 14 21 1016.9 1016.4 0.0
29/10:30am 8.2 2.4 2.4 67 2.5 WSW 22 33 12 18 1017.3 1016.7 0.0
29/10:02am 6.8 -0.2 1.9 71 2.1 WSW 28 48 15 26 1017.1 1016.5 0.0
29/10:00am 6.9 -0.5 2.0 71 2.1 WSW 30 48 16 26 1017.1 1016.5 0.0
29/09:53am 6.6 -0.4 1.9 72 2.0 WSW 28 48 15 26 1017.1 1016.5 0.0
29/09:30am 6.2 0.4 2.1 75 1.8 WSW 22 35 12 19 1016.9 1016.4 0.0
29/09:00am 5.3 -1.3 2.0 79 1.4 WSW 26 37 14 20 1016.6 1016.1 1.8
29/08:30am 4.6 -2.0 1.8 82 1.2 WSW 26 35 14 19 1016.2 1015.6 1.8
29/08:00am 4.2 -2.5 1.6 83 1.1 WSW 26 33 14 18 1015.8 1015.2 1.8
29/07:30am 3.8 -3.3 1.4 84 1.0 W 28 35 15 19 1015.4 1014.9 1.8
29/07:00am 3.4 -4.1 1.1 85 0.9 WSW 30 37 16 20 1015.0 1014.4 1.8
29/06:30am 3.3 -3.5 1.0 85 0.9 WSW 26 35 14 19 1014.8 1014.2 1.8
29/06:00am 3.4 -3.4 1.1 85 0.9 WSW 26 32 14 17 1014.5 1013.9 1.8
29/05:30am 3.9 -3.6 1.4 84 1.0 WSW 30 39 16 21 1014.2 1013.7 1.8
29/05:00am 3.7 -3.0 1.3 84 1.0 W 26 33 14 18 1014.2 1013.7 1.8
29/04:30am 3.7 -3.4 1.3 84 1.0 W 28 33 15 18 1013.9 1013.3 1.8
29/04:00am 4.1 -3.4 1.5 83 1.1 W 30 37 16 20 1013.7 1013.1 1.8
29/03:30am 4.1 -2.7 1.1 81 1.2 WSW 26 33 14 18 1013.6 1013.0 1.8
29/03:00am 4.5 -3.0 1.0 78 1.4 WSW 30 39 16 21 1013.3 1012.7 1.8
29/02:30am 4.1 -2.7 0.8 79 1.3 WSW 26 33 14 18 1013.3 1012.7 1.8
29/02:00am 4.5 -3.0 1.4 80 1.3 WSW 30 39 16 21 1013.4 1012.8 1.8
29/01:30am 4.5 -2.6 1.4 80 1.3 W 28 39 15 21 1013.5 1012.9 1.8
29/01:00am 4.4 -3.0 1.6 82 1.2 W 30 39 16 21 1013.3 1012.7 1.8
29/12:30am 4.6 -3.2 2.0 83 1.1 W 32 39 17 21 1012.8 1012.2 1.8
29/12:00am 4.8 -3.5 2.0 82 1.2 W 35 44 19 24 1012.8 1012.2 1.8
 
Date/Time
EST
Temp
°C
App
Temp
°C
Dew
Point
Rel
Hum
%
Delta-T
°C
Wind Press
QNH
hPa
Press
MSL
hPa
Rain
since 9 am
mm
Dir
 
Spd
km/h
Gust
km/h
Spd
kts
Gust
kts
28/11:30pm 4.5 -2.9 1.7 82 1.2 W 30 37 16 20 1012.7 1012.1 1.8
28/11:00pm 4.7 -2.7 1.6 80 1.3 W 30 39 16 21 1012.7 1012.1 1.8
28/10:30pm 4.6 -2.1 1.6 81 1.2 W 26 39 14 21 1012.6 1012.0 1.8
28/10:00pm 4.8 -3.0 1.7 80 1.3 W 32 43 17 23 1012.2 1011.6 1.8
28/09:30pm 4.9 -2.5 1.7 80 1.3 W 30 39 16 21 1012.0 1011.3 1.8
28/09:00pm 5.2 -2.3 1.5 77 1.5 WSW 30 43 16 23 1011.8 1011.1 1.8
28/08:30pm 5.3 -2.1 2.0 79 1.4 W 30 39 16 21 1011.4 1010.8 1.8
28/08:00pm 5.5 -1.5 2.2 79 1.4 W 28 41 15 22 1011.4 1010.8 1.8
28/07:30pm 5.8 -2.0 2.6 80 1.4 WSW 33 54 18 29 1011.1 1010.5 1.8
28/07:24pm 5.9 -2.0 2.5 79 1.5 WSW 33 54 18 29 1010.9 1010.2 1.8
28/07:00pm 6.1 -2.1 2.9 80 1.4 W 35 46 19 25 1010.6 1009.9 1.6
28/06:30pm 6.3 -2.2 2.9 79 1.5 W 37 48 20 26 1010.0 1009.4 1.6
28/06:11pm 6.4 -1.1 3.4 81 1.3 W 32 50 17 27 1009.7 1009.0 1.6
28/06:00pm 6.3 -1.5 2.9 79 1.5 W 33 46 18 25 1009.5 1008.8 1.6
28/05:30pm 6.3 -1.5 2.9 79 1.5 W 33 43 18 23 1008.8 1008.1 1.6
28/05:00pm 6.6 -1.5 3.0 78 1.6 WSW 35 50 19 27 1008.2 1007.5 1.6
28/04:47pm 6.7 -0.8 3.3 79 1.5 WSW 32 50 17 27 1008.2 1007.5 1.6
28/04:30pm 7.0 -1.5 3.3 77 1.6 WSW 37 52 20 28 1008.0 1007.3 1.6
28/04:00pm 7.5 0.4 3.6 76 1.8 WSW 30 41 16 22 1007.3 1006.6 1.6
28/03:30pm 6.9 -1.2 3.2 77 1.6 W 35 48 19 26 1006.6 1005.8 1.6
28/03:00pm 6.8 -0.8 3.8 81 1.4 WSW 33 50 18 27 1006.6 1005.8 1.6
28/02:30pm 7.4 -0.3 3.3 75 1.8 WSW 33 48 18 26 1006.2 1005.5 1.6
28/02:18pm 7.3 -0.5 3.0 74 1.9 WSW 33 52 18 28 1005.8 1005.1 1.6
28/02:00pm 7.6 -0.1 3.6 76 1.8 WSW 33 46 18 25 1005.8 1005.1 1.6
28/01:47pm 7.5 -0.3 3.0 73 2.0 W 33 52 18 28 1005.6 1004.8 1.6
28/01:30pm 7.5 0.9 4.3 80 1.5 W 28 39 15 21 1005.5 1004.7 1.6
28/01:00pm 7.2 0.2 4.3 82 1.3 W 30 39 16 21 1005.5 1004.7 1.6
28/12:30pm 7.3 0.4 4.4 82 1.3 W 30 37 16 20 1005.5 1004.7 1.6
28/12:00pm 7.4 1.8 5.4 87 0.9 W 24 35 13 19 1005.6 1004.8 1.6
28/11:30am 6.6 0.8 4.4 86 1.0 WSW 24 39 13 21 1005.9 1005.2 1.6
28/11:00am 6.0 1.0 4.5 90 0.7 WSW 20 28 11 15 1006.3 1005.6 1.6
28/10:30am 6.1 1.4 5.2 94 0.4 W 19 24 10 13 1006.5 1005.7 1.6
28/10:00am 6.1 1.8 5.1 93 0.5 W 17 22 9 12 1006.7 1005.9 1.4
28/09:30am 5.8 1.0 4.4 91 0.6 WNW 19 26 10 14 1006.7 1005.9 0.8
28/09:00am 6.7 3.0 4.2 84 1.1 WNW 13 24 7 13 1006.6 1005.8 0.0
28/08:30am 6.7 3.3 3.9 82 1.3 W 11 15 6 8 1006.6 1005.8 0.0

Other Formats:

Comma delimited format used in spreadsheet applications
http://www.bom.gov.au/fwo/IDN60801/IDN60801.99742.axf

JavaScript Object Notation format (JSON) in row-major order
http://www.bom.gov.au/fwo/IDN60801/IDN60801.99742.json